.
WxDataArchive / Data Records for 2015-10-19
2015-10-18 October 2015 2015-10-20

Data Records for Monday, 19 October 2015

Time	Temp	Chill	HIndex	Humid	Dewpt	 Wind 	HiWind	WindDir	Rain 	Barom
-----	----	-----	------	-----	-----	------	------	-------	-----	-----
00:00	35.3	35.3	35.3	84	31.0	0	0	---	0.00	30.368 
00:05	35.2	35.2	35.2	84	30.9	0	0	---	0.00	30.368 
00:10	35.0	35.0	35.0	84	30.7	0	0	---	0.00	30.368 
00:15	34.9	34.9	34.9	84	30.6	0	0	---	0.00	30.366 
00:20	34.9	34.9	34.9	84	30.6	0	0	---	0.00	30.366 
00:25	34.7	34.7	34.7	85	30.7	0	0	---	0.00	30.366 
00:30	34.6	34.6	34.6	85	30.6	0	0	---	0.00	30.365 
00:35	34.4	34.4	34.4	85	30.4	0	0	---	0.00	30.365 
00:40	34.4	34.4	34.4	85	30.4	0	0	---	0.00	30.365 
00:45	34.3	34.3	34.3	86	30.6	0	0	---	0.00	30.365 
00:50	34.1	34.1	34.1	86	30.4	0	0	---	0.00	30.365 
00:55	34.0	34.0	34.0	86	30.3	0	0	---	0.00	30.365 
01:00	33.8	33.8	33.8	86	30.1	0	0	---	0.00	30.366 
01:05	33.8	33.8	33.8	87	30.3	0	0	---	0.00	30.366 
01:10	33.8	33.8	33.8	87	30.3	0	0	---	0.00	30.366 
01:15	33.8	33.8	33.8	87	30.3	0	0	---	0.00	30.366 
01:20	33.7	33.7	33.7	87	30.3	0	0	---	0.00	30.366 
01:25	33.7	33.7	33.7	87	30.3	0	0	---	0.00	30.366 
01:30	33.5	33.5	33.5	87	30.1	0	0	---	0.00	30.363 
01:35	33.5	33.5	33.5	88	30.3	0	0	---	0.00	30.363 
01:40	33.4	33.4	33.4	88	30.2	0	0	---	0.00	30.363 
01:45	33.4	33.4	33.4	88	30.2	0	0	---	0.00	30.359 
01:50	33.2	33.2	33.2	88	30.0	0	0	---	0.00	30.359 
01:55	33.1	33.1	33.1	88	29.9	0	0	---	0.00	30.359 
02:00	33.1	33.1	33.1	88	29.9	0	0	---	0.00	30.361 
02:05	32.9	32.9	32.9	88	29.7	0	0	---	0.00	30.361 
02:10	32.8	32.8	32.8	88	29.6	0	0	---	0.00	30.361 
02:15	32.8	32.8	32.8	88	29.6	0	0	---	0.00	30.362 
02:20	32.7	32.7	32.7	88	29.5	0	0	---	0.00	30.362 
02:25	32.7	32.7	32.7	88	29.5	0	0	---	0.00	30.362 
02:30	32.7	32.7	32.7	88	29.5	0	0	---	0.00	30.362 
02:35	32.5	32.5	32.5	89	29.6	0	0	---	0.00	30.362 
02:40	32.5	32.5	32.5	89	29.6	0	0	---	0.00	30.362 
02:45	32.5	32.5	32.5	89	29.6	0	0	---	0.00	30.363 
02:50	32.4	32.4	32.4	89	29.5	0	0	---	0.00	30.363 
02:55	32.4	32.4	32.4	89	29.5	0	0	---	0.00	30.363 
03:00	32.2	32.2	32.2	89	29.3	0	0	---	0.00	30.365 
03:05	32.2	32.2	32.2	89	29.3	0	0	---	0.00	30.365 
03:10	32.1	32.1	32.1	89	29.2	0	0	---	0.00	30.365 
03:15	32.1	32.1	32.1	89	29.2	0	0	---	0.00	30.365 
03:20	31.9	31.9	31.9	89	29.0	0	0	---	0.00	30.365 
03:25	31.9	31.9	31.9	89	29.0	0	0	---	0.00	30.365 
03:30	31.9	31.9	31.9	89	29.0	0	0	---	0.00	30.364 
03:35	31.8	31.8	31.8	89	28.9	0	0	---	0.00	30.364 
03:40	31.8	31.8	31.8	89	28.9	0	0	---	0.00	30.364 
03:45	31.8	31.8	31.8	89	28.9	0	0	---	0.00	30.364 
03:50	31.6	31.6	31.6	89	28.7	0	0	---	0.00	30.364 
03:55	31.5	31.5	31.5	90	28.9	0	0	---	0.00	30.364 
04:00	31.5	31.5	31.5	90	28.9	0	0	---	0.00	30.361 
04:05	31.3	31.3	31.3	90	28.7	0	0	---	0.00	30.361 
04:10	31.3	31.3	31.3	90	28.7	0	0	---	0.00	30.361 
04:15	31.3	31.3	31.3	90	28.7	0	0	---	0.00	30.353 
04:20	31.3	31.3	31.3	90	28.7	0	0	---	0.00	30.353 
04:25	31.3	31.3	31.3	90	28.7	0	0	---	0.00	30.353 
04:30	31.2	31.2	31.2	90	28.6	0	0	---	0.00	30.351 
04:35	31.2	31.2	31.2	91	28.9	0	0	---	0.00	30.351 
04:40	31.2	31.2	31.2	91	28.9	0	0	---	0.00	30.351 
04:45	31.3	31.3	31.3	91	29.0	0	0	---	0.00	30.354 
04:50	31.2	31.2	31.2	91	28.9	0	0	---	0.00	30.354 
04:55	31.2	31.2	31.2	91	28.9	0	0	---	0.00	30.354 
05:00	31.0	31.0	31.0	91	28.7	0	0	---	0.00	30.351 
05:05	30.9	30.9	30.9	91	28.6	0	0	---	0.00	30.351 
05:10	30.9	30.9	30.9	91	28.6	0	0	---	0.00	30.351 
05:15	30.9	30.9	30.9	91	28.6	0	0	---	0.00	30.349 
05:20	30.9	30.9	30.9	91	28.6	0	0	---	0.00	30.349 
05:25	31.0	31.0	31.0	91	28.7	0	0	---	0.00	30.349 
05:30	31.2	31.2	31.2	91	28.9	0	0	---	0.00	30.349 
05:35	31.5	31.5	31.5	92	29.4	0	0	---	0.00	30.349 
05:40	32.1	32.1	32.1	91	29.8	0	0	---	0.00	30.349 
05:45	32.5	32.5	32.5	91	30.2	0	0	---	0.00	30.345 
05:50	32.9	32.9	32.9	90	30.3	0	0	---	0.00	30.345 
05:55	33.2	33.2	33.2	88	30.0	0	0	---	0.00	30.345 
06:00	33.7	33.7	33.7	87	30.3	0	0	---	0.00	30.341 
06:05	33.8	33.8	33.8	86	30.1	0	0	---	0.00	30.341 
06:10	34.1	34.1	34.1	84	29.8	0	0	---	0.00	30.341 
06:15	34.3	34.3	34.3	84	30.0	0	0	---	0.00	30.345 
06:20	34.4	34.4	34.4	83	29.8	0	0	---	0.00	30.345 
06:25	34.6	34.6	34.6	82	29.7	0	0	---	0.00	30.345 
06:30	34.7	34.7	34.7	80	29.2	0	0	---	0.00	30.339 
06:35	35.0	35.0	35.0	79	29.2	0	0	---	0.00	30.339 
06:40	35.2	35.2	35.2	78	29.0	0	0	---	0.00	30.339 
06:45	35.3	35.3	35.3	77	28.8	0	0	---	0.00	30.336 
06:50	35.5	35.5	35.5	77	29.0	0	1	292	0.00	30.336 
06:55	35.6	35.6	35.6	76	28.8	0	0	---	0.00	30.336 
07:00	35.8	35.8	35.8	75	28.7	0	0	---	0.00	30.338 
07:05	35.9	35.9	35.9	74	28.4	0	0	---	0.00	30.338 
07:10	36.2	36.2	36.2	73	28.4	0	0	---	0.00	30.338 
07:15	36.2	36.2	36.2	73	28.4	0	0	---	0.00	30.343 
07:20	36.3	36.3	36.3	72	28.2	0	0	---	0.00	30.343 
07:25	36.3	36.3	36.3	72	28.2	0	0	---	0.00	30.343 
07:30	36.3	36.3	36.3	71	27.8	0	0	---	0.00	30.342 
07:35	36.3	36.3	36.3	71	27.8	0	0	---	0.00	30.342 
07:40	36.3	36.3	36.3	71	27.8	0	0	---	0.00	30.342 
07:45	36.5	36.5	36.5	70	27.7	0	0	---	0.00	30.340 
07:50	36.5	36.5	36.5	70	27.7	0	0	---	0.00	30.340 
07:55	36.5	36.5	36.5	70	27.7	0	0	---	0.00	30.340 
08:00	36.5	36.5	36.5	70	27.7	0	0	---	0.00	30.338 
08:05	36.5	36.5	36.5	70	27.7	0	0	---	0.00	30.338 
08:10	36.6	36.6	36.6	70	27.8	0	0	---	0.00	30.338 
08:15	36.8	36.8	36.8	70	27.9	0	0	---	0.00	30.341 
08:20	36.9	36.9	36.9	70	28.0	0	0	---	0.00	30.341 
08:25	37.0	37.0	37.0	70	28.1	0	0	---	0.00	30.341 
08:30	37.0	37.0	37.0	69	27.8	0	0	---	0.00	30.341 
08:35	37.2	37.2	37.2	69	28.0	0	0	---	0.00	30.341 
08:40	37.3	37.3	37.3	69	28.1	0	0	---	0.00	30.341 
08:45	37.6	37.6	37.6	68	28.0	0	1	292	0.00	30.342 
08:50	37.9	37.9	37.9	68	28.3	0	0	---	0.00	30.342 
08:55	38.3	38.3	38.3	68	28.7	0	1	292	0.00	30.342 
09:00	38.8	38.8	38.8	67	28.8	0	0	---	0.00	30.337 
09:05	39.3	39.3	39.3	66	28.9	0	1	292	0.00	30.337 
09:10	40.1	40.1	40.1	65	29.3	0	1	292	0.00	30.337 
09:15	40.8	40.8	40.8	64	29.6	0	1	292	0.00	30.335 
09:20	41.3	41.3	41.3	63	29.7	0	1	292	0.00	30.335 
09:25	41.9	41.9	41.9	61	29.4	0	1	292	0.00	30.335 
09:30	42.5	42.5	42.5	60	29.6	0	0	---	0.00	30.336 
09:35	43.1	43.1	43.1	57	28.9	0	1	292	0.00	30.336 
09:40	43.8	43.8	43.8	57	29.6	0	1	292	0.00	30.336 
09:45	44.5	44.5	44.5	56	29.8	0	1	292	0.00	30.328 
09:50	45.2	45.2	45.2	53	29.1	0	1	292	0.00	30.328 
09:55	46.1	46.1	46.1	50	28.5	0	2	270	0.00	30.328 
10:00	46.8	46.8	46.8	50	29.2	0	1	270	0.00	30.319 
10:05	47.6	47.6	47.6	49	29.4	0	3	270	0.00	30.319 
10:10	48.5	48.5	48.5	46	28.7	0	4	270	0.00	30.319 
10:15	49.2	49.2	49.2	45	28.8	0	2	270	0.00	30.318 
10:20	50.1	50.1	50.1	44	29.0	0	2	270	0.00	30.318 
10:25	50.8	50.8	50.8	43	29.1	0	2	270	0.00	30.318 
10:30	51.6	51.6	51.6	43	29.8	0	2	270	0.00	30.311 
10:35	52.5	52.5	52.5	40	28.9	1	4	270	0.00	30.311 
10:40	53.1	53.1	53.1	40	29.4	1	6	90	0.00	30.311 
10:45	53.2	53.2	53.2	39	28.9	1	5	90	0.00	30.300 
10:50	53.2	53.2	53.2	39	28.9	1	3	292	0.00	30.300 
10:55	53.2	53.2	53.2	39	28.9	1	4	292	0.00	30.300 
11:00	53.1	53.1	53.1	39	28.8	1	6	248	0.00	30.300 
11:05	53.2	53.2	53.2	40	29.5	1	4	225	0.00	30.300 
11:10	53.5	53.5	53.5	39	29.2	1	3	90	0.00	30.300 
11:15	54.1	54.1	54.1	40	30.3	0	3	292	0.00	30.298 
11:20	55.0	55.0	55.0	39	30.5	1	5	248	0.00	30.298 
11:25	55.7	55.7	55.7	37	29.8	1	3	90	0.00	30.298 
11:30	56.0	56.0	56.0	36	29.4	1	4	270	0.00	30.286 
11:35	56.3	56.3	56.3	35	29.0	1	5	270	0.00	30.286 
11:40	56.7	56.7	56.7	33	27.9	1	4	248	0.00	30.286 
11:45	57.2	57.2	57.2	32	27.6	1	4	248	0.00	30.280 
11:50	57.8	57.8	57.8	32	28.1	1	3	248	0.00	30.280 
11:55	58.3	58.3	58.3	30	27.0	1	4	248	0.00	30.280 
12:00	58.4	58.4	58.4	30	27.1	1	4	248	0.00	30.277 
12:05	58.9	58.9	58.9	30	27.5	1	5	248	0.00	30.277 
12:10	59.2	59.2	59.2	28	26.1	1	5	248	0.00	30.277 
12:15	59.5	59.5	59.5	28	26.4	1	4	248	0.00	30.264 
12:20	59.8	59.8	59.8	27	25.8	1	6	248	0.00	30.264 
12:25	60.1	60.1	60.1	27	26.0	1	5	248	0.00	30.264 
12:30	60.4	60.4	60.4	28	27.1	2	5	248	0.00	30.260 
12:35	60.5	60.5	60.5	28	27.2	1	5	270	0.00	30.260 
12:40	61.0	61.0	61.0	27	26.8	1	3	270	0.00	30.260 
12:45	61.6	61.6	61.6	28	28.2	1	2	270	0.00	30.249 
12:50	61.8	61.8	61.8	27	27.5	1	4	248	0.00	30.249 
12:55	62.1	62.1	62.1	26	26.8	1	5	248	0.00	30.249 
13:00	62.1	62.1	62.1	26	26.8	2	5	248	0.00	30.240 
13:05	62.1	62.1	62.1	25	25.9	2	6	248	0.00	30.240 
13:10	62.1	62.1	62.1	26	26.8	2	9	248	0.00	30.240 
13:15	62.3	62.3	62.3	26	27.0	1	4	248	0.00	30.233 
13:20	62.6	62.6	62.6	26	27.2	1	3	248	0.00	30.233 
13:25	62.7	62.7	62.7	25	26.4	2	6	248	0.00	30.233 
13:30	63.1	63.1	63.1	25	26.7	2	6	248	0.00	30.220 
13:35	63.1	63.1	63.1	26	27.7	1	4	248	0.00	30.220 
13:40	63.4	63.4	63.4	25	27.0	2	6	248	0.00	30.220 
13:45	63.4	63.4	63.4	25	27.0	1	5	248	0.00	30.214 
13:50	63.5	63.5	63.5	25	27.1	1	5	248	0.00	30.214 
13:55	63.7	63.7	63.7	25	27.2	2	6	248	0.00	30.214 
14:00	63.9	63.9	63.9	25	27.4	1	6	248	0.00	30.200 
14:05	64.2	64.2	64.2	25	27.6	1	4	270	0.00	30.200 
14:10	64.5	64.5	64.5	25	27.9	1	5	248	0.00	30.200 
14:15	64.7	64.7	64.7	25	28.1	1	3	248	0.00	30.192 
14:20	64.7	64.7	64.7	24	27.1	1	6	248	0.00	30.192 
14:25	65.0	65.0	65.0	25	28.3	1	4	248	0.00	30.192 
14:30	65.0	65.0	65.0	24	27.3	1	6	248	0.00	30.184 
14:35	65.0	65.0	65.0	25	28.3	1	5	270	0.00	30.184 
14:40	65.3	65.3	65.3	25	28.6	1	4	270	0.00	30.184 
14:45	65.5	65.5	65.5	25	28.7	1	5	270	0.00	30.174 
14:50	65.6	65.6	65.6	25	28.8	1	5	248	0.00	30.174 
14:55	65.8	65.8	65.8	24	28.0	1	4	248	0.00	30.174 
15:00	66.0	66.0	66.0	24	28.2	1	4	248	0.00	30.166 
15:05	66.0	66.0	66.0	25	29.2	1	4	248	0.00	30.166 
15:10	66.0	66.0	66.0	24	28.2	1	5	248	0.00	30.166 
15:15	66.1	66.1	66.1	24	28.3	1	9	270	0.00	30.159 
15:20	66.1	66.1	66.1	25	29.3	1	3	270	0.00	30.159 
15:25	66.4	66.4	66.4	25	29.5	1	3	270	0.00	30.159 
15:30	66.6	66.6	66.6	24	28.7	1	4	248	0.00	30.150 
15:35	66.6	66.6	66.6	24	28.7	1	3	248	0.00	30.150 
15:40	66.4	66.4	66.4	25	29.5	2	6	248	0.00	30.150 
15:45	66.8	66.8	66.8	25	29.8	1	3	315	0.00	30.147 
15:50	67.3	67.3	67.3	24	29.3	1	7	248	0.00	30.147 
15:55	67.4	67.4	67.4	24	29.4	1	4	248	0.00	30.147 
16:00	67.4	67.4	67.4	24	29.4	1	5	270	0.00	30.142 
16:05	67.6	67.6	67.6	24	29.5	1	3	292	0.00	30.142 
16:10	67.4	67.4	67.4	24	29.4	1	4	248	0.00	30.142 
16:15	67.3	67.3	67.3	24	29.3	1	4	248	0.00	30.135 
16:20	67.1	67.1	67.1	24	29.1	1	5	225	0.00	30.135 
16:25	67.1	67.1	67.1	24	29.1	1	7	248	0.00	30.135 
16:30	67.1	67.1	67.1	24	29.1	1	4	292	0.00	30.133 
16:35	67.1	67.1	67.1	24	29.1	1	3	248	0.00	30.133 
16:40	67.1	67.1	67.1	24	29.1	0	4	248	0.00	30.133 
16:45	67.1	67.1	67.1	24	29.1	1	4	248	0.00	30.131 
16:50	67.1	67.1	67.1	24	29.1	1	3	248	0.00	30.131 
16:55	67.1	67.1	67.1	25	30.1	0	1	248	0.00	30.131 
17:00	67.1	67.1	67.1	24	29.1	1	6	248	0.00	30.121 
17:05	66.9	66.9	66.9	24	28.9	1	5	270	0.00	30.121 
17:10	66.9	66.9	66.9	24	28.9	1	7	248	0.00	30.121 
17:15	66.8	66.8	66.8	24	28.8	1	4	270	0.00	30.117 
17:20	66.8	66.8	66.8	24	28.8	0	3	270	0.00	30.117 
17:25	66.6	66.6	66.6	24	28.7	1	6	270	0.00	30.117 
17:30	66.4	66.4	66.4	24	28.5	1	5	248	0.00	30.118 
17:35	66.4	66.4	66.4	24	28.5	1	4	248	0.00	30.118 
17:40	66.3	66.3	66.3	25	29.4	1	5	248	0.00	30.118 
17:45	66.1	66.1	66.1	25	29.3	1	3	248	0.00	30.117 
17:50	66.1	66.1	66.1	25	29.3	1	4	248	0.00	30.117 
17:55	66.0	66.0	66.0	25	29.2	1	5	270	0.00	30.117 
18:00	65.8	65.8	65.8	25	29.0	1	4	248	0.00	30.116 
18:05	65.8	65.8	65.8	25	29.0	1	3	248	0.00	30.116 
18:10	65.6	65.6	65.6	25	28.8	0	4	248	0.00	30.116 
18:15	65.3	65.3	65.3	26	29.5	0	2	248	0.00	30.111 
18:20	65.2	65.2	65.2	25	28.5	0	2	248	0.00	30.111 
18:25	65.0	65.0	65.0	26	29.3	1	6	270	0.00	30.111 
18:30	64.8	64.8	64.8	26	29.1	0	5	248	0.00	30.114 
18:35	64.7	64.7	64.7	26	29.0	0	2	248	0.00	30.114 
18:40	64.3	64.3	64.3	27	29.6	0	2	248	0.00	30.114 
18:45	64.0	64.0	64.0	27	29.4	0	2	248	0.00	30.116 
18:50	63.7	63.7	63.7	28	30.0	0	1	315	0.00	30.116 
18:55	63.4	63.4	63.4	28	29.7	0	2	315	0.00	30.116 
19:00	63.1	63.1	63.1	27	28.6	0	1	315	0.00	30.119 
19:05	62.9	62.9	62.9	28	29.3	0	2	315	0.00	30.119 
19:10	62.6	62.6	62.6	28	29.0	0	2	338	0.00	30.119 
19:15	62.4	62.4	62.4	29	29.7	0	2	270	0.00	30.118 
19:20	62.3	62.3	62.3	29	29.6	0	1	270	0.00	30.118 
19:25	62.1	62.1	62.1	29	29.5	0	1	270	0.00	30.118 
19:30	61.8	61.8	61.8	30	30.0	0	2	248	0.00	30.121 
19:35	61.6	61.6	61.6	30	29.9	0	2	248	0.00	30.121 
19:40	61.5	61.5	61.5	30	29.8	0	1	248	0.00	30.121 
19:45	61.3	61.3	61.3	30	29.6	0	3	248	0.00	30.121 
19:50	61.2	61.2	61.2	30	29.5	0	1	248	0.00	30.121 
19:55	61.2	61.2	61.2	30	29.5	0	2	248	0.00	30.121 
20:00	61.2	61.2	61.2	31	30.3	0	2	248	0.00	30.126 
20:05	61.0	61.0	61.0	30	29.3	0	1	248	0.00	30.126 
20:10	60.9	60.9	60.9	30	29.3	0	1	248	0.00	30.126 
20:15	60.9	60.9	60.9	30	29.3	0	2	248	0.00	30.129 
20:20	60.7	60.7	60.7	31	29.9	0	2	248	0.00	30.129 
20:25	60.7	60.7	60.7	30	29.1	0	3	248	0.00	30.129 
20:30	60.7	60.7	60.7	31	29.9	0	2	248	0.00	30.126 
20:35	60.7	60.7	60.7	31	29.9	0	3	248	0.00	30.126 
20:40	60.5	60.5	60.5	31	29.7	0	4	248	0.00	30.126 
20:45	60.5	60.5	60.5	31	29.7	0	1	248	0.00	30.126 
20:50	60.4	60.4	60.4	30	28.8	0	3	248	0.00	30.126 
20:55	60.4	60.4	60.4	31	29.6	0	1	248	0.00	30.126 
21:00	60.4	60.4	60.4	31	29.6	0	1	248	0.00	30.126 
21:05	60.2	60.2	60.2	31	29.5	0	1	248	0.00	30.126 
21:10	60.1	60.1	60.1	31	29.4	1	3	248	0.00	30.126 
21:15	60.1	60.1	60.1	31	29.4	0	1	248	0.00	30.113 
21:20	60.1	60.1	60.1	31	29.4	0	3	248	0.00	30.113 
21:25	59.9	59.9	59.9	31	29.2	0	3	248	0.00	30.113 
21:30	59.9	59.9	59.9	31	29.2	0	3	248	0.00	30.112 
21:35	59.8	59.8	59.8	31	29.1	0	2	270	0.00	30.112 
21:40	59.5	59.5	59.5	32	29.6	0	3	270	0.00	30.112 
21:45	59.3	59.3	59.3	33	30.2	0	1	270	0.00	30.113 
21:50	59.2	59.2	59.2	33	30.1	0	1	270	0.00	30.113 
21:55	58.9	58.9	58.9	33	29.9	0	3	270	0.00	30.113 
22:00	58.7	58.7	58.7	33	29.7	0	1	270	0.00	30.113 
22:05	58.6	58.6	58.6	35	31.0	0	2	270	0.00	30.113 
22:10	58.3	58.3	58.3	35	30.8	0	2	270	0.00	30.113 
22:15	58.3	58.3	58.3	35	30.8	0	2	270	0.00	30.112 
22:20	58.1	58.1	58.1	35	30.6	0	1	270	0.00	30.112 
22:25	58.0	58.0	58.0	36	31.2	0	2	270	0.00	30.112 
22:30	57.8	57.8	57.8	36	31.0	0	1	270	0.00	30.110 
22:35	57.8	57.8	57.8	36	31.0	0	1	270	0.00	30.110 
22:40	57.8	57.8	57.8	37	31.7	0	2	270	0.00	30.110 
22:45	57.6	57.6	57.6	37	31.5	0	3	270	0.00	30.109 
22:50	57.6	57.6	57.6	37	31.5	0	2	270	0.00	30.109 
22:55	57.6	57.6	57.6	37	31.5	0	2	270	0.00	30.109 
23:00	57.6	57.6	57.6	37	31.5	0	1	270	0.00	30.110 
23:05	57.6	57.6	57.6	37	31.5	0	2	270	0.00	30.110 
23:10	57.8	57.8	57.8	37	31.7	0	2	270	0.00	30.110 
23:15	57.8	57.8	57.8	37	31.7	0	2	270	0.00	30.108 
23:20	57.8	57.8	57.8	37	31.7	0	1	270	0.00	30.108 
23:25	57.6	57.6	57.6	38	32.2	0	1	270	0.00	30.108 
23:30	57.8	57.8	57.8	38	32.4	0	2	270	0.00	30.109 
23:35	57.8	57.8	57.8	38	32.4	0	2	270	0.00	30.109 
23:40	57.8	57.8	57.8	37	31.7	0	2	270	0.00	30.109 
23:45	58.0	58.0	58.0	38	32.5	0	1	270	0.00	30.106 
23:50	58.0	58.0	58.0	38	32.5	0	4	270	0.00	30.106 
23:55	58.0	58.0	58.0	38	32.5	0	1	270	0.00	30.106 

CoCoRaHS
IN-AL-39
A2 Web Hosting
Creative Commons License
GoDaddy
search engine by freefind advanced

loaded 2018-11-13 23:54:23 • last modified 2010-11-18 10:43:29
Privacy PolicyDisclaimer
• wx.awcolley.com is powered by PmWiki v.2002016 •
• all content (unless otherwise noted) © 2018 A W Colley